Time;durP1;ratioP1;P1;durP2;ratioP2;P2;SDS_P1;SDS_P2;PMS_P1;PMS_P2;Temp;Humidity;BMP_temperature;BMP_pressure;BME280_temperature;BME280_humidity;BME280_pressure;Samples;Min_cycle;Max_cycle;Signal;HPM_P1;HPM_P2
2022/08/19 00:01:25;;;;;;;14.32;12.30;;;;;;;;;;5012770;28;20046;-66
2022/08/19 00:03:57;;;;;;;16.45;12.77;;;;;;;;;;5012361;28;20096;-66
2022/08/19 00:06:24;;;;;;;13.75;12.35;;;;;;;;;;5012279;28;20045;-66
2022/08/19 00:08:51;;;;;;;15.38;13.25;;;;;;;;;;5012917;28;20523;-66
2022/08/19 00:11:18;;;;;;;13.60;12.27;;;;;;;;;;5012749;28;20065;-66
2022/08/19 00:13:52;;;;;;;14.50;13.00;;;;;;;;;;5012464;28;20045;-66
2022/08/19 00:16:19;;;;;;;15.43;13.70;;;;;;;;;;5011244;28;20057;-66
2022/08/19 00:18:51;;;;;;;15.38;13.82;;;;;;;;;;5012069;28;20424;-66
2022/08/19 00:21:18;;;;;;;15.40;13.80;;;;;;;;;;5012673;28;20046;-66
2022/08/19 00:23:44;;;;;;;14.95;13.45;;;;;;;;;;5012723;28;20077;-66
2022/08/19 00:26:11;;;;;;;19.90;13.73;;;;;;;;;;5012289;28;20054;-66
2022/08/19 00:28:38;;;;;;;15.07;13.27;;;;;;;;;;5012707;28;20046;-66
2022/08/19 00:31:05;;;;;;;14.90;13.38;;;;;;;;;;5012572;28;20054;-65
2022/08/19 00:33:32;;;;;;;14.07;12.65;;;;;;;;;;5012524;28;20073;-65
2022/08/19 00:36:04;;;;;;;14.05;12.52;;;;;;;;;;5012274;28;20245;-66
2022/08/19 00:38:31;;;;;;;14.57;12.05;;;;;;;;;;5012358;28;20050;-65
2022/08/19 00:41:04;;;;;;;13.52;12.13;;;;;;;;;;5007916;28;20053;-65
2022/08/19 00:43:31;;;;;;;15.48;13.13;;;;;;;;;;5013609;28;20054;-65
2022/08/19 00:45:58;;;;;;;14.98;13.48;;;;;;;;;;5013821;28;20557;-65
2022/08/19 00:48:25;;;;;;;14.05;12.45;;;;;;;;;;5013640;28;20046;-65
2022/08/19 00:50:53;;;;;;;16.20;12.93;;;;;;;;;;5012457;28;20057;-65
2022/08/19 00:53:22;;;;;;;14.88;13.32;;;;;;;;;;5012444;28;20056;-65
2022/08/19 00:55:51;;;;;;;14.80;12.82;;;;;;;;;;4996400;28;20050;-65
2022/08/19 00:58:20;;;;;;;13.65;12.15;;;;;;;;;;5011956;28;20137;-65
2022/08/19 01:00:47;;;;;;;14.10;12.40;;;;;;;;;;5012294;28;20046;-66
2022/08/19 01:03:17;;;;;;;13.85;12.45;;;;;;;;;;5013065;28;20104;-65
2022/08/19 01:05:46;;;;;;;17.88;13.43;;;;;;;;;;5013205;28;20045;-65
2022/08/19 01:08:14;;;;;;;14.82;13.32;;;;;;;;;;5012085;28;20058;-65
2022/08/19 01:10:43;;;;;;;16.50;14.63;;;;;;;;;;5013133;28;20065;-65
2022/08/19 01:13:10;;;;;;;15.38;13.13;;;;;;;;;;5012067;28;20049;-65
2022/08/19 01:15:46;;;;;;;15.77;12.85;;;;;;;;;;5013567;28;20100;-66
2022/08/19 01:18:14;;;;;;;14.43;12.93;;;;;;;;;;5009850;28;20068;-66
2022/08/19 01:20:41;;;;;;;14.00;12.60;;;;;;;;;;4993075;28;20468;-66
2022/08/19 01:23:09;;;;;;;14.65;12.98;;;;;;;;;;5011105;28;20053;-66
2022/08/19 01:25:43;;;;;;;15.73;13.10;;;;;;;;;;5012117;28;20064;-65
2022/08/19 01:28:17;;;;;;;18.58;14.10;;;;;;;;;;5011864;28;20249;-65
2022/08/19 01:30:59;;;;;;;15.55;13.77;;;;;;;;;;4993300;28;20081;-65
2022/08/19 01:33:33;;;;;;;16.13;13.43;;;;;;;;;;4993131;28;20046;-65
2022/08/19 01:36:08;;;;;;;16.73;12.27;;;;;;;;;;4993052;28;20250;-66
2022/08/19 01:38:37;;;;;;;14.70;13.20;;;;;;;;;;4991923;28;20054;-65
2022/08/19 01:41:11;;;;;;;17.00;14.30;;;;;;;;;;4993057;28;20125;-65
2022/08/19 01:43:38;;;;;;;15.38;13.43;;;;;;;;;;4992816;28;20061;-65
2022/08/19 01:46:24;;;;;;;17.40;13.98;;;;;;;;;;4992690;28;20502;-65
2022/08/19 01:48:51;;;;;;;17.45;14.80;;;;;;;;;;4992521;28;20073;-65
2022/08/19 01:51:18;;;;;;;18.77;14.27;;;;;;;;;;4992981;28;20050;-65
2022/08/19 01:53:48;;;;;;;14.73;12.63;;;;;;;;;;4992818;28;20054;-65
2022/08/19 01:56:15;;;;;;;15.18;12.95;;;;;;;;;;5006873;28;20053;-65
2022/08/19 01:58:50;;;;;;;17.33;13.95;;;;;;;;;;5027231;28;20080;-65
2022/08/19 02:01:17;;;;;;;16.05;14.32;;;;;;;;;;5011372;28;20425;-65
2022/08/19 02:03:45;;;;;;;15.05;13.48;;;;;;;;;;5012259;28;20128;-65
2022/08/19 02:06:13;;;;;;;16.73;14.20;;;;;;;;;;5012298;28;20060;-65
2022/08/19 02:08:40;;;;;;;18.02;14.60;;;;;;;;;;5012000;28;20061;-65
2022/08/19 02:11:07;;;;;;;17.88;14.75;;;;;;;;;;5012071;28;20448;-65
2022/08/19 02:13:34;;;;;;;17.88;14.52;;;;;;;;;;5011874;28;20057;-65
2022/08/19 02:16:00;;;;;;;19.73;16.48;;;;;;;;;;5012346;28;20053;-65
2022/08/19 02:18:30;;;;;;;18.58;14.23;;;;;;;;;;5011999;28;20045;-65
2022/08/19 02:20:56;;;;;;;17.75;15.02;;;;;;;;;;5012282;28;20053;-65
2022/08/19 02:23:23;;;;;;;19.05;16.30;;;;;;;;;;5011971;28;20425;-65
2022/08/19 02:25:51;;;;;;;17.65;15.02;;;;;;;;;;5011949;28;20061;-65
2022/08/19 02:28:17;;;;;;;18.95;15.02;;;;;;;;;;5010620;28;20061;-65
2022/08/19 02:30:45;;;;;;;21.27;16.85;;;;;;;;;;5012140;28;20069;-65
2022/08/19 02:33:12;;;;;;;19.13;16.25;;;;;;;;;;5011927;28;20053;-65
2022/08/19 02:35:43;;;;;;;20.98;17.40;;;;;;;;;;5011902;28;20049;-65
2022/08/19 02:38:25;;;;;;;21.65;17.38;;;;;;;;;;5010376;28;20065;-65
2022/08/19 02:41:19;;;;;;;24.77;16.73;;;;;;;;;;5012151;28;20053;-65
2022/08/19 02:43:49;;;;;;;20.27;16.75;;;;;;;;;;5009994;28;20480;-65
2022/08/19 02:46:36;;;;;;;17.17;15.35;;;;;;;;;;5011951;28;20057;-65
2022/08/19 02:49:05;;;;;;;19.02;17.02;;;;;;;;;;5011706;28;20053;-65
2022/08/19 02:51:38;;;;;;;22.30;17.23;;;;;;;;;;5011827;28;20046;-65
2022/08/19 02:54:07;;;;;;;22.00;16.60;;;;;;;;;;5011843;28;20054;-65
2022/08/19 02:56:37;;;;;;;22.00;17.38;;;;;;;;;;5011914;28;20069;-65
2022/08/19 02:59:08;;;;;;;18.25;15.90;;;;;;;;;;5011759;28;20428;-65
2022/08/19 03:01:39;;;;;;;20.02;16.67;;;;;;;;;;5011827;28;20073;-65
2022/08/19 03:04:06;;;;;;;20.35;16.58;;;;;;;;;;5011544;28;20100;-65
2022/08/19 03:06:38;;;;;;;19.02;16.10;;;;;;;;;;5010620;28;20504;-65
2022/08/19 03:09:04;;;;;;;20.08;17.10;;;;;;;;;;5010904;28;20053;-66
2022/08/19 03:11:32;;;;;;;21.67;18.20;;;;;;;;;;5012034;28;20057;-65
2022/08/19 03:13:59;;;;;;;20.85;17.75;;;;;;;;;;5011630;28;20049;-65
2022/08/19 03:16:28;;;;;;;22.00;17.65;;;;;;;;;;5012011;28;20561;-65
2022/08/19 03:18:59;;;;;;;19.67;17.45;;;;;;;;;;5011750;28;20467;-66
2022/08/19 03:21:31;;;;;;;21.65;18.00;;;;;;;;;;5012221;28;20060;-65
2022/08/19 03:24:02;;;;;;;25.88;18.48;;;;;;;;;;5011630;28;20061;-65
2022/08/19 03:26:29;;;;;;;22.05;19.17;;;;;;;;;;5011501;28;20413;-65
2022/08/19 03:28:56;;;;;;;23.73;19.20;;;;;;;;;;5011509;28;20061;-65
2022/08/19 03:31:25;;;;;;;22.70;17.27;;;;;;;;;;5014652;28;20046;-65
2022/08/19 03:34:14;;;;;;;25.27;19.55;;;;;;;;;;5015109;28;20057;-65
2022/08/19 03:36:41;;;;;;;24.15;17.95;;;;;;;;;;5015033;28;20053;-65
2022/08/19 03:39:08;;;;;;;23.05;19.40;;;;;;;;;;5014960;28;20524;-65
2022/08/19 03:41:40;;;;;;;23.45;19.88;;;;;;;;;;5013948;28;20049;-64
2022/08/19 03:44:13;;;;;;;22.83;18.92;;;;;;;;;;5014948;28;20050;-64
2022/08/19 03:46:45;;;;;;;20.95;18.67;;;;;;;;;;5014677;28;20060;-65
2022/08/19 03:49:12;;;;;;;24.25;20.27;;;;;;;;;;5014528;28;20050;-64
2022/08/19 03:51:41;;;;;;;23.02;18.88;;;;;;;;;;5014821;28;20475;-64
2022/08/19 03:54:09;;;;;;;21.92;19.52;;;;;;;;;;5014746;28;20064;-64
2022/08/19 03:56:37;;;;;;;22.23;17.90;;;;;;;;;;5014552;28;20057;-64
2022/08/19 03:59:05;;;;;;;24.30;19.27;;;;;;;;;;5014534;28;20406;-65
2022/08/19 04:01:32;;;;;;;24.83;19.63;;;;;;;;;;5014417;28;20108;-64
2022/08/19 04:04:01;;;;;;;22.15;18.73;;;;;;;;;;5013982;28;20064;-65
2022/08/19 04:06:32;;;;;;;23.10;19.90;;;;;;;;;;5014439;28;20046;-65
2022/08/19 04:09:01;;;;;;;23.08;19.27;;;;;;;;;;5014134;28;20068;-65
2022/08/19 04:11:30;;;;;;;23.98;21.08;;;;;;;;;;5014591;28;20054;-65
2022/08/19 04:14:15;;;;;;;23.05;18.92;;;;;;;;;;5013089;28;20053;-65
2022/08/19 04:16:44;;;;;;;23.92;20.13;;;;;;;;;;5014389;28;20413;-65
2022/08/19 04:19:11;;;;;;;23.95;20.70;;;;;;;;;;5014032;28;20049;-65
2022/08/19 04:21:37;;;;;;;25.13;20.60;;;;;;;;;;5014305;28;20090;-65
2022/08/19 04:24:05;;;;;;;22.48;20.02;;;;;;;;;;5013894;28;20050;-65
2022/08/19 04:26:34;;;;;;;23.63;20.05;;;;;;;;;;5013898;28;20057;-65
2022/08/19 04:29:04;;;;;;;23.10;20.58;;;;;;;;;;5012223;28;20429;-66
2022/08/19 04:31:37;;;;;;;26.33;21.45;;;;;;;;;;5013848;28;20057;-66
2022/08/19 04:34:05;;;;;;;25.48;21.25;;;;;;;;;;5013883;28;20394;-66
2022/08/19 04:36:34;;;;;;;25.13;21.20;;;;;;;;;;5013891;28;20052;-66
2022/08/19 04:39:10;;;;;;;24.58;20.63;;;;;;;;;;5013970;28;20053;-66
2022/08/19 04:44:22;;;;;;;25.77;21.13;;;;;;;;;;5013725;28;20056;-66
2022/08/19 04:46:49;;;;;;;26.83;22.33;;;;;;;;;;5013601;28;20049;-66
2022/08/19 04:49:19;;;;;;;24.75;20.20;;;;;;;;;;5013372;28;20105;-66
2022/08/19 04:51:47;;;;;;;24.25;20.42;;;;;;;;;;5013425;28;20057;-66
2022/08/19 04:54:15;;;;;;;24.33;20.73;;;;;;;;;;5013351;28;20058;-66
2022/08/19 04:57:04;;;;;;;22.45;19.95;;;;;;;;;;5013314;28;20054;-66
2022/08/19 04:59:33;;;;;;;22.92;20.45;;;;;;;;;;5013219;28;20072;-66
2022/08/19 05:01:59;;;;;;;24.48;20.02;;;;;;;;;;5013424;28;20119;-66
2022/08/19 05:04:31;;;;;;;24.73;21.60;;;;;;;;;;5013170;28;20053;-66
2022/08/19 05:06:58;;;;;;;25.07;21.30;;;;;;;;;;5013352;28;20097;-66
2022/08/19 05:09:27;;;;;;;25.17;20.63;;;;;;;;;;5013095;28;20083;-66
2022/08/19 05:12:05;;;;;;;25.02;21.38;;;;;;;;;;5011706;28;20058;-66
2022/08/19 05:14:32;;;;;;;26.70;22.10;;;;;;;;;;5012681;28;20061;-66
2022/08/19 05:17:00;;;;;;;22.80;20.15;;;;;;;;;;5014433;28;20408;-66
2022/08/19 05:22:34;;;;;;;26.73;21.98;;;;;;;;;;5028976;28;20049;-66
2022/08/19 05:25:05;;;;;;;28.35;22.08;;;;;;;;;;5015591;28;20053;-66
2022/08/19 05:27:40;;;;;;;26.25;20.50;;;;;;;;;;5029174;28;20042;-66
2022/08/19 05:30:07;;;;;;;25.15;21.63;;;;;;;;;;5012534;28;20053;-66
2022/08/19 05:32:34;;;;;;;24.73;21.15;;;;;;;;;;5012848;28;20049;-66
2022/08/19 05:35:01;;;;;;;25.25;20.23;;;;;;;;;;5012593;28;20046;-66
2022/08/19 05:37:27;;;;;;;24.25;21.60;;;;;;;;;;5012610;28;20050;-66
2022/08/19 05:39:54;;;;;;;23.83;20.60;;;;;;;;;;5012676;28;20054;-66
2022/08/19 05:42:22;;;;;;;22.20;19.80;;;;;;;;;;5012544;28;20500;-66
2022/08/19 05:44:49;;;;;;;27.02;22.75;;;;;;;;;;5012522;28;20050;-66
2022/08/19 05:47:18;;;;;;;23.15;20.70;;;;;;;;;;5012564;28;20402;-66
2022/08/19 05:49:45;;;;;;;25.25;21.15;;;;;;;;;;5012260;28;20533;-66
2022/08/19 05:52:15;;;;;;;27.13;20.45;;;;;;;;;;5012094;28;20057;-66
2022/08/19 05:54:47;;;;;;;;;;;;;;;;;;5012633;28;20050;-67
2022/08/19 05:57:16;;;;;;;23.92;21.02;;;;;;;;;;5012568;28;19976;-66
2022/08/19 05:59:45;;;;;;;24.45;21.88;;;;;;;;;;5012284;28;20354;-66
2022/08/19 06:02:13;;;;;;;25.45;22.13;;;;;;;;;;5012232;28;20050;-66
2022/08/19 06:04:42;;;;;;;25.23;22.23;;;;;;;;;;5012163;28;20549;-66
2022/08/19 06:07:09;;;;;;;27.83;22.60;;;;;;;;;;5012106;28;20104;-66
2022/08/19 06:09:39;;;;;;;23.40;20.58;;;;;;;;;;5012361;28;20417;-66
2022/08/19 06:12:06;;;;;;;24.40;21.77;;;;;;;;;;5012114;28;20061;-66
2022/08/19 06:14:34;;;;;;;35.45;22.02;;;;;;;;;;5012128;28;20061;-67
2022/08/19 06:17:07;;;;;;;26.77;22.38;;;;;;;;;;5012186;28;20046;-67
2022/08/19 06:19:34;;;;;;;26.02;22.00;;;;;;;;;;5010841;28;20057;-66
2022/08/19 06:22:07;;;;;;;24.48;21.65;;;;;;;;;;5011901;28;20050;-67
2022/08/19 06:24:34;;;;;;;24.75;22.02;;;;;;;;;;5012151;28;20050;-66
2022/08/19 06:27:01;;;;;;;23.42;20.92;;;;;;;;;;5012051;28;20045;-67
2022/08/19 06:29:28;;;;;;;27.35;22.60;;;;;;;;;;5011884;28;20489;-67
2022/08/19 06:31:56;;;;;;;25.20;20.92;;;;;;;;;;5011994;28;20058;-66
2022/08/19 06:34:23;;;;;;;27.25;22.15;;;;;;;;;;5011827;28;20532;-66
2022/08/19 06:36:51;;;;;;;25.55;21.40;;;;;;;;;;5012211;28;20493;-66
2022/08/19 06:39:20;;;;;;;23.45;20.13;;;;;;;;;;5011786;28;20495;-66
2022/08/19 06:41:48;;;;;;;24.02;21.45;;;;;;;;;;5011999;28;20530;-66
2022/08/19 06:44:21;;;;;;;25.70;20.20;;;;;;;;;;5011789;28;20058;-66
2022/08/19 06:46:49;;;;;;;26.65;21.70;;;;;;;;;;5012209;28;20042;-66
2022/08/19 06:49:21;;;;;;;23.60;21.10;;;;;;;;;;5011797;28;20069;-66
2022/08/19 06:51:48;;;;;;;25.90;23.13;;;;;;;;;;5011928;28;20072;-66
2022/08/19 06:54:17;;;;;;;27.73;23.75;;;;;;;;;;5011633;28;20402;-66
2022/08/19 06:56:45;;;;;;;24.85;22.13;;;;;;;;;;5011682;28;20180;-66
2022/08/19 06:59:17;;;;;;;27.73;22.05;;;;;;;;;;5009776;28;20054;-65
2022/08/19 07:01:50;;;;;;;25.83;23.03;;;;;;;;;;5010035;28;20124;-65
2022/08/19 07:04:19;;;;;;;25.63;22.17;;;;;;;;;;5009473;28;20077;-65
2022/08/19 07:06:46;;;;;;;25.13;22.05;;;;;;;;;;5012247;28;20402;-65
2022/08/19 07:09:20;;;;;;;23.38;20.00;;;;;;;;;;5013105;28;20100;-65
2022/08/19 07:11:52;;;;;;;25.08;21.48;;;;;;;;;;5013320;28;20132;-65
2022/08/19 07:14:21;;;;;;;24.85;21.23;;;;;;;;;;5013410;28;20050;-65
2022/08/19 07:16:49;;;;;;;27.05;21.52;;;;;;;;;;5013432;28;20417;-65
2022/08/19 07:19:17;;;;;;;21.20;18.98;;;;;;;;;;5012793;28;20516;-65
2022/08/19 07:21:47;;;;;;;22.50;20.13;;;;;;;;;;5013092;28;20100;-65
2022/08/19 07:24:15;;;;;;;23.45;20.02;;;;;;;;;;5013097;28;20054;-65
2022/08/19 07:26:42;;;;;;;25.52;20.40;;;;;;;;;;4995742;28;20173;-65
2022/08/19 07:29:10;;;;;;;25.23;20.42;;;;;;;;;;5012865;28;20069;-65
2022/08/19 07:31:39;;;;;;;21.30;19.00;;;;;;;;;;5013040;28;20129;-65
2022/08/19 07:34:11;;;;;;;21.02;18.92;;;;;;;;;;5012672;28;20050;-65
2022/08/19 07:36:40;;;;;;;22.25;19.45;;;;;;;;;;5012466;28;20053;-65
2022/08/19 07:39:10;;;;;;;19.98;17.83;;;;;;;;;;5012235;28;20060;-65
2022/08/19 07:41:37;;;;;;;22.45;18.35;;;;;;;;;;5012652;28;20103;-65
2022/08/19 07:44:07;;;;;;;21.40;17.98;;;;;;;;;;4994215;28;20057;-65
2022/08/19 07:46:45;;;;;;;20.30;17.50;;;;;;;;;;4992127;28;20129;-65
2022/08/19 07:49:19;;;;;;;23.60;18.55;;;;;;;;;;5017284;28;20125;-65
2022/08/19 07:52:01;;;;;;;19.60;17.30;;;;;;;;;;5014677;28;20308;-65
2022/08/19 07:54:29;;;;;;;19.55;17.52;;;;;;;;;;5021944;28;20046;-65
2022/08/19 07:56:56;;;;;;;19.15;17.20;;;;;;;;;;5024099;28;20516;-65
2022/08/19 07:59:23;;;;;;;20.83;18.65;;;;;;;;;;5024516;28;20057;-65
2022/08/19 08:01:51;;;;;;;26.92;18.92;;;;;;;;;;5011881;28;20055;-65
2022/08/19 08:09:57;;;;;;;23.05;19.33;;;;;;;;;;5010283;28;20054;-65
2022/08/19 08:12:28;;;;;;;21.92;18.40;;;;;;;;;;5001199;28;20055;-65
2022/08/19 08:15:04;;;;;;;20.35;17.73;;;;;;;;;;5007812;28;20054;-65
2022/08/19 08:17:34;;;;;;;21.08;18.10;;;;;;;;;;5017131;28;20393;-65
2022/08/19 08:20:17;;;;;;;;;;;;;;;;;;5020368;28;20053;-65
2022/08/19 08:25:35;;;;;;;20.38;17.40;;;;;;;;;;5009015;28;20563;-65
2022/08/19 08:28:03;;;;;;;20.30;18.10;;;;;;;;;;5012069;28;20133;-64
2022/08/19 08:30:32;;;;;;;20.63;18.25;;;;;;;;;;5017707;28;20049;-65
2022/08/19 08:32:59;;;;;;;19.35;17.33;;;;;;;;;;5021810;28;20042;-65
2022/08/19 08:35:28;;;;;;;20.63;17.45;;;;;;;;;;5012157;28;20054;-65
2022/08/19 08:37:56;;;;;;;19.80;17.35;;;;;;;;;;5007166;28;20061;-65
2022/08/19 08:40:38;;;;;;;18.85;15.70;;;;;;;;;;5002961;28;20166;-65
2022/08/19 08:43:21;;;;;;;18.33;16.40;;;;;;;;;;5000279;28;20060;-65
2022/08/19 08:45:52;;;;;;;19.83;15.93;;;;;;;;;;5001911;28;20412;-65
2022/08/19 08:49:04;;;;;;;18.25;16.35;;;;;;;;;;5004427;28;20125;-64
2022/08/19 08:51:38;;;;;;;17.45;15.55;;;;;;;;;;5005602;28;20140;-65
2022/08/19 08:54:13;;;;;;;20.23;16.40;;;;;;;;;;4997987;28;20049;-65
2022/08/19 08:56:42;;;;;;;18.80;15.77;;;;;;;;;;5007443;28;20056;-64
2022/08/19 08:59:16;;;;;;;19.92;17.77;;;;;;;;;;5006744;28;20389;-65
2022/08/19 09:01:43;;;;;;;19.95;16.73;;;;;;;;;;5003827;28;20057;-65
2022/08/19 09:04:10;;;;;;;20.08;17.50;;;;;;;;;;5017601;28;20069;-65
2022/08/19 09:07:07;;;;;;;21.30;16.80;;;;;;;;;;5016346;28;20455;-65
2022/08/19 09:10:01;;;;;;;19.02;16.67;;;;;;;;;;5001619;28;20472;-64
2022/08/19 09:12:42;;;;;;;21.33;17.60;;;;;;;;;;5010963;28;20045;-69
2022/08/19 09:15:12;;;;;;;23.55;17.08;;;;;;;;;;5004177;28;20497;-67
2022/08/19 09:17:39;;;;;;;22.38;16.92;;;;;;;;;;5005054;28;20050;-70
2022/08/19 09:20:09;;;;;;;21.27;18.95;;;;;;;;;;5007953;28;20049;-66
2022/08/19 09:22:40;;;;;;;22.35;19.83;;;;;;;;;;5006367;28;20046;-67
2022/08/19 09:25:08;;;;;;;24.40;19.65;;;;;;;;;;5006307;28;20060;-67
2022/08/19 09:27:37;;;;;;;25.65;21.40;;;;;;;;;;5005697;28;20042;-67
2022/08/19 09:30:23;;;;;;;21.70;18.52;;;;;;;;;;5005648;28;20476;-69
2022/08/19 09:32:52;;;;;;;20.63;18.38;;;;;;;;;;5007398;28;20054;-68
2022/08/19 09:35:21;;;;;;;23.55;20.48;;;;;;;;;;5007704;28;20435;-69
2022/08/19 09:37:50;;;;;;;21.75;18.67;;;;;;;;;;5006647;28;20073;-69
2022/08/19 09:40:25;;;;;;;19.90;17.80;;;;;;;;;;5007080;28;20589;-69
2022/08/19 09:42:52;;;;;;;21.73;19.33;;;;;;;;;;5005912;28;20108;-69
2022/08/19 09:45:21;;;;;;;22.63;19.73;;;;;;;;;;5006725;28;20045;-68
2022/08/19 09:47:50;;;;;;;22.90;19.60;;;;;;;;;;5004588;28;20525;-68
2022/08/19 09:50:19;;;;;;;21.33;19.13;;;;;;;;;;5003932;28;20050;-68
2022/08/19 09:52:46;;;;;;;24.08;21.55;;;;;;;;;;5007373;28;20081;-70
2022/08/19 09:55:23;;;;;;;22.73;20.27;;;;;;;;;;5005944;28;20561;-71
2022/08/19 09:58:01;;;;;;;24.88;19.92;;;;;;;;;;5005899;28;20136;-70
2022/08/19 10:00:30;;;;;;;24.17;21.48;;;;;;;;;;5006496;28;20046;-71
2022/08/19 10:02:57;;;;;;;21.60;19.15;;;;;;;;;;5005119;28;20561;-68
2022/08/19 10:08:15;;;;;;;25.35;19.98;;;;;;;;;;5005706;28;20050;-68
2022/08/19 10:10:43;;;;;;;25.95;19.10;;;;;;;;;;5006436;28;20501;-68
2022/08/19 10:13:14;;;;;;;24.52;20.50;;;;;;;;;;5005874;28;20050;-67
2022/08/19 10:15:41;;;;;;;23.30;20.42;;;;;;;;;;5005606;28;20041;-68
2022/08/19 10:18:15;;;;;;;24.88;20.27;;;;;;;;;;5006295;28;20121;-68
2022/08/19 10:20:43;;;;;;;24.83;20.48;;;;;;;;;;5004953;28;20137;-69
2022/08/19 10:23:10;;;;;;;23.10;19.90;;;;;;;;;;5001700;28;20050;-70
2022/08/19 10:25:37;;;;;;;22.95;20.42;;;;;;;;;;5005010;28;20050;-68
2022/08/19 10:28:11;;;;;;;25.80;20.27;;;;;;;;;;5005453;28;20056;-68
2022/08/19 10:30:39;;;;;;;20.77;18.58;;;;;;;;;;5005047;28;20398;-67
2022/08/19 10:33:06;;;;;;;19.88;17.80;;;;;;;;;;5004986;28;20054;-66
2022/08/19 10:35:37;;;;;;;23.40;18.90;;;;;;;;;;5005328;28;20049;-67
2022/08/19 10:38:22;;;;;;;24.17;16.75;;;;;;;;;;5006856;28;20070;-69
2022/08/19 10:40:57;;;;;;;26.92;18.58;;;;;;;;;;5009212;28;20154;-73
2022/08/19 10:43:24;;;;;;;20.20;16.88;;;;;;;;;;5010545;28;20084;-68
2022/08/19 10:45:56;;;;;;;20.52;16.98;;;;;;;;;;5009187;28;20524;-67
2022/08/19 10:48:26;;;;;;;19.00;16.97;;;;;;;;;;5006378;28;20049;-65
2022/08/19 10:53:49;;;;;;;18.00;16.08;;;;;;;;;;5010374;28;20065;-69
2022/08/19 10:59:03;;;;;;;17.77;15.90;;;;;;;;;;5009584;28;20050;-66
2022/08/19 11:01:30;;;;;;;15.77;14.25;;;;;;;;;;5009208;28;20121;-66
2022/08/19 11:03:57;;;;;;;16.73;14.93;;;;;;;;;;5009433;28;20056;-67
2022/08/19 11:06:27;;;;;;;17.92;15.05;;;;;;;;;;5010271;28;20053;-67
2022/08/19 11:08:54;;;;;;;17.27;15.40;;;;;;;;;;5008989;28;20089;-67
2022/08/19 11:11:21;;;;;;;15.77;14.15;;;;;;;;;;5011089;28;20129;-66
2022/08/19 11:13:49;;;;;;;15.63;14.02;;;;;;;;;;5008265;28;20054;-67
2022/08/19 11:16:22;;;;;;;14.10;12.70;;;;;;;;;;5010233;28;20077;-67
2022/08/19 11:18:51;;;;;;;15.13;13.52;;;;;;;;;;5009419;28;20608;-67
2022/08/19 11:21:34;;;;;;;13.63;11.77;;;;;;;;;;5006597;28;20069;-67
2022/08/19 11:24:05;;;;;;;13.30;11.30;;;;;;;;;;5008748;28;20132;-66
2022/08/19 11:26:32;;;;;;;12.50;10.68;;;;;;;;;;5008985;28;20052;-72
2022/08/19 11:29:00;;;;;;;11.63;10.43;;;;;;;;;;5008956;28;20054;-69
2022/08/19 11:31:30;;;;;;;11.63;10.18;;;;;;;;;;5010780;28;20053;-67
2022/08/19 11:33:59;;;;;;;13.23;9.50;;;;;;;;;;5007484;28;20416;-67
2022/08/19 11:36:26;;;;;;;9.70;8.70;;;;;;;;;;5013606;28;20057;-67
2022/08/19 11:38:54;;;;;;;11.27;10.15;;;;;;;;;;5014364;28;20056;-67
2022/08/19 11:41:23;;;;;;;15.50;10.07;;;;;;;;;;5017872;28;20516;-67
2022/08/19 11:43:54;;;;;;;10.98;9.85;;;;;;;;;;5014104;28;20054;-67
2022/08/19 11:46:22;;;;;;;11.82;10.55;;;;;;;;;;5012894;28;20516;-67
2022/08/19 11:48:50;;;;;;;11.30;10.20;;;;;;;;;;5009713;28;20619;-67
2022/08/19 11:51:20;;;;;;;12.90;11.50;;;;;;;;;;5007791;28;20045;-67
2022/08/19 11:53:47;;;;;;;12.20;11.10;;;;;;;;;;5010972;28;20498;-67
2022/08/19 11:56:13;;;;;;;13.23;11.82;;;;;;;;;;5009038;28;20049;-67
2022/08/19 11:58:43;;;;;;;16.83;11.23;;;;;;;;;;5012243;28;20053;-67
2022/08/19 12:01:11;;;;;;;18.55;10.27;;;;;;;;;;5012676;28;20555;-67
2022/08/19 12:03:38;;;;;;;17.17;10.73;;;;;;;;;;5014387;28;20563;-67
2022/08/19 12:06:07;;;;;;;13.25;9.90;;;;;;;;;;5011871;28;20065;-67
2022/08/19 12:08:33;;;;;;;11.88;10.50;;;;;;;;;;5016798;28;20046;-67
2022/08/19 12:11:03;;;;;;;12.10;10.90;;;;;;;;;;5014928;28;20201;-67
2022/08/19 12:13:30;;;;;;;11.95;10.75;;;;;;;;;;5015183;28;20052;-67
2022/08/19 12:15:58;;;;;;;10.73;9.52;;;;;;;;;;5014141;28;20073;-67
2022/08/19 12:18:24;;;;;;;15.07;11.35;;;;;;;;;;5014962;28;20049;-67
2022/08/19 12:20:54;;;;;;;11.95;10.40;;;;;;;;;;5016724;28;20144;-67
2022/08/19 12:23:20;;;;;;;11.93;10.60;;;;;;;;;;5012085;28;20049;-67
2022/08/19 12:25:51;;;;;;;13.90;11.45;;;;;;;;;;5011133;28;20050;-67
2022/08/19 12:28:23;;;;;;;11.30;10.13;;;;;;;;;;5013239;28;20057;-67
2022/08/19 12:30:51;;;;;;;12.00;10.47;;;;;;;;;;5007968;28;20425;-67
2022/08/19 12:33:23;;;;;;;12.80;10.80;;;;;;;;;;5008086;28;20137;-67
2022/08/19 12:35:51;;;;;;;12.40;11.18;;;;;;;;;;5010214;28;20054;-67
2022/08/19 12:38:18;;;;;;;11.77;9.95;;;;;;;;;;5010471;28;20072;-67
2022/08/19 12:40:46;;;;;;;10.27;9.18;;;;;;;;;;5009270;28;20060;-67
2022/08/19 12:43:15;;;;;;;11.38;10.27;;;;;;;;;;5010355;28;20045;-67
2022/08/19 12:45:43;;;;;;;10.88;9.80;;;;;;;;;;5009611;28;20053;-67
2022/08/19 12:48:12;;;;;;;10.95;9.95;;;;;;;;;;5010522;28;20053;-67
2022/08/19 12:50:59;;;;;;;11.85;10.40;;;;;;;;;;5008909;28;20050;-67
2022/08/19 12:53:26;;;;;;;10.30;9.32;;;;;;;;;;5009118;28;20057;-67
2022/08/19 12:55:57;;;;;;;10.32;9.32;;;;;;;;;;5010623;28;20054;-67
2022/08/19 12:58:23;;;;;;;10.73;9.63;;;;;;;;;;5007545;28;20456;-67
2022/08/19 13:00:53;;;;;;;10.23;9.32;;;;;;;;;;5008155;28;20053;-68
2022/08/19 13:03:22;;;;;;;12.95;11.30;;;;;;;;;;5006005;28;20045;-67
2022/08/19 13:05:50;;;;;;;20.25;15.07;;;;;;;;;;5002526;28;20046;-67
2022/08/19 13:08:17;;;;;;;22.40;20.13;;;;;;;;;;5008276;28;20468;-67
2022/08/19 13:10:44;;;;;;;26.90;20.60;;;;;;;;;;5006052;28;20046;-66
2022/08/19 13:13:11;;;;;;;26.38;20.50;;;;;;;;;;5008446;28;20133;-66
2022/08/19 13:15:40;;;;;;;27.02;24.13;;;;;;;;;;5007909;28;20089;-66
2022/08/19 13:18:08;;;;;;;26.98;23.35;;;;;;;;;;5007696;28;20050;-66
2022/08/19 13:20:36;;;;;;;26.52;23.63;;;;;;;;;;5006582;28;20050;-66
2022/08/19 13:23:03;;;;;;;28.27;23.85;;;;;;;;;;5008120;28;20058;-66
2022/08/19 13:25:30;;;;;;;28.17;23.33;;;;;;;;;;5006848;28;20054;-66
2022/08/19 13:27:57;;;;;;;26.45;23.50;;;;;;;;;;5007141;28;20049;-66
2022/08/19 13:33:11;;;;;;;28.40;22.50;;;;;;;;;;5007240;28;20056;-66
2022/08/19 13:35:50;;;;;;;25.75;23.00;;;;;;;;;;5004761;28;20092;-66
2022/08/19 13:38:20;;;;;;;26.92;21.38;;;;;;;;;;5007394;28;20046;-66
2022/08/19 13:40:49;;;;;;;26.65;22.00;;;;;;;;;;5008156;28;20080;-66
2022/08/19 13:43:16;;;;;;;24.83;22.23;;;;;;;;;;5007385;28;20053;-66
2022/08/19 13:45:55;;;;;;;23.85;20.58;;;;;;;;;;5007390;28;20054;-66
2022/08/19 13:48:22;;;;;;;22.58;18.80;;;;;;;;;;5004460;28;20081;-66
2022/08/19 13:50:49;;;;;;;23.13;20.55;;;;;;;;;;5006161;28;20056;-66
2022/08/19 13:53:16;;;;;;;24.33;21.55;;;;;;;;;;5006308;28;20068;-65
2022/08/19 13:55:43;;;;;;;25.13;21.48;;;;;;;;;;5007137;28;20050;-65
2022/08/19 13:58:10;;;;;;;23.88;21.38;;;;;;;;;;5006672;28;20050;-72
2022/08/19 14:00:41;;;;;;;24.45;21.15;;;;;;;;;;5007130;28;20046;-65
2022/08/19 14:03:08;;;;;;;26.88;22.35;;;;;;;;;;5002527;28;20092;-65
2022/08/19 14:05:35;;;;;;;24.73;21.70;;;;;;;;;;5007858;28;20428;-65
2022/08/19 14:08:02;;;;;;;24.15;21.52;;;;;;;;;;5006294;28;20046;-65
2022/08/19 14:10:30;;;;;;;27.98;24.95;;;;;;;;;;5000525;28;20082;-65
2022/08/19 14:12:59;;;;;;;22.73;20.20;;;;;;;;;;5006948;28;20049;-64
2022/08/19 14:15:26;;;;;;;23.98;21.15;;;;;;;;;;5007492;28;20045;-65
2022/08/19 14:17:53;;;;;;;23.85;21.38;;;;;;;;;;5006495;28;20049;-64
2022/08/19 14:20:21;;;;;;;27.13;22.27;;;;;;;;;;5005674;28;20046;-64
2022/08/19 14:22:52;;;;;;;26.67;22.55;;;;;;;;;;5006597;28;21315;-65
2022/08/19 14:25:24;;;;;;;26.05;22.58;;;;;;;;;;5006422;28;20049;-65
2022/08/19 14:27:51;;;;;;;27.90;23.08;;;;;;;;;;5006424;28;20046;-65
2022/08/19 14:30:21;;;;;;;24.75;21.52;;;;;;;;;;5006192;28;20076;-68
2022/08/19 14:32:47;;;;;;;25.80;22.98;;;;;;;;;;5005987;28;20057;-66
2022/08/19 14:35:15;;;;;;;25.23;22.75;;;;;;;;;;5005939;28;20050;-65
2022/08/19 14:37:44;;;;;;;26.10;22.70;;;;;;;;;;5006119;28;20050;-66
2022/08/19 14:40:21;;;;;;;26.65;23.75;;;;;;;;;;5005156;28;20045;-66
2022/08/19 14:42:48;;;;;;;26.23;23.48;;;;;;;;;;5022877;28;20058;-66
2022/08/19 14:45:14;;;;;;;27.85;24.85;;;;;;;;;;5006320;28;20065;-65
2022/08/19 14:47:41;;;;;;;30.83;25.95;;;;;;;;;;5007802;28;20053;-64
2022/08/19 14:50:11;;;;;;;35.08;27.88;;;;;;;;;;5006346;28;20440;-66
2022/08/19 14:52:48;;;;;;;30.95;26.80;;;;;;;;;;5003168;28;20053;-63
2022/08/19 14:55:15;;;;;;;30.67;26.85;;;;;;;;;;5005044;28;20050;-63
2022/08/19 14:57:43;;;;;;;29.60;25.30;;;;;;;;;;5005362;28;20176;-65
2022/08/19 15:00:13;;;;;;;31.02;26.60;;;;;;;;;;5005290;28;20073;-66